KSSC/SSC METAR and TAF weather

Enter ICAO airport designator
Station Type Date Time Source
KSSC METAR 2022/06/25 21:56 UTC NOAA

KSSC 252156Z AUTO 00000KT 10SM CLR 33/15 A3004 RMK AO2 SLP172 T03290145 $


Station Type Date Time Source
KSSC Decoded METAR 2022/06/25 21:56 UTC NOAA

Shaw Air Force Base, SC, United States (KSSC) 33-58N 080-29W 73M
Jun 25, 2022 - 05:56 PM EDT / 2022.06.25 2156 UTC
Wind: Calm:0
Visibility: 10 mile(s):0
Sky conditions: clear
Temperature: 91.2 F (32.9 C)
Dew Point: 58.1 F (14.5 C)
Relative Humidity: 32%
Pressure (altimeter): 30.04 in. Hg (1017 hPa)
ob: KSSC 252156Z AUTO 00000KT 10SM CLR 33/15 A3004 RMK AO2 SLP172 T03290145
cycle: 22

Station Type Date Time Source
KSSC TAF 2022/06/25 15:03 UTC NOAA

TAF KSSC 251500Z 2515/2621 08006KT 9999 FEW055 QNH3005INS TX33/2520Z TN19/2610Z LAST NO
AMDS AFT 2515 NEXT 2523

Example: see airport list